createdAt,value
2019-02-07T00:00:17.801Z,0.00
2019-02-07T00:01:17.774Z,0.00
2019-02-07T00:02:17.712Z,0.00
2019-02-07T00:03:17.760Z,0.00
2019-02-07T00:04:21.069Z,0.00
2019-02-07T00:05:17.790Z,0.00
2019-02-07T00:06:18.789Z,0.00
2019-02-07T00:07:18.108Z,0.00
2019-02-07T00:08:18.023Z,0.00
2019-02-07T00:09:18.654Z,0.00
2019-02-07T00:10:17.605Z,0.00
2019-02-07T00:11:17.625Z,0.00
2019-02-07T00:12:17.594Z,0.00
2019-02-07T00:13:17.699Z,0.00
2019-02-07T00:14:17.559Z,0.00
2019-02-07T00:15:17.482Z,0.00
2019-02-07T00:16:17.507Z,0.00
2019-02-07T00:17:17.622Z,0.00
2019-02-07T00:18:17.617Z,0.00
2019-02-07T00:19:17.453Z,0.00
2019-02-07T00:20:18.095Z,0.00
2019-02-07T00:21:17.616Z,0.00
2019-02-07T00:22:17.485Z,0.00
2019-02-07T00:23:17.537Z,0.00
2019-02-07T00:24:17.559Z,0.00
2019-02-07T00:25:17.456Z,0.00
2019-02-07T00:26:17.517Z,0.00
2019-02-07T00:27:17.455Z,0.00
2019-02-07T00:28:17.548Z,0.00
2019-02-07T00:29:17.362Z,0.00
2019-02-07T00:30:17.460Z,0.00
2019-02-07T00:31:17.380Z,0.00
2019-02-07T00:32:17.455Z,0.00
2019-02-07T00:33:17.331Z,0.00
2019-02-07T00:34:17.344Z,0.00
2019-02-07T00:35:17.420Z,0.00
2019-02-07T00:36:18.153Z,0.00
2019-02-07T00:37:17.343Z,0.00
2019-02-07T00:38:17.358Z,0.00
2019-02-07T00:39:17.279Z,0.00
2019-02-07T00:40:17.341Z,0.00
2019-02-07T00:41:17.447Z,0.00
2019-02-07T00:42:17.373Z,0.00
2019-02-07T00:43:17.261Z,0.00
2019-02-07T00:44:17.214Z,0.00
2019-02-07T00:45:18.206Z,0.00
2019-02-07T00:46:20.080Z,0.00
2019-02-07T00:47:17.551Z,0.00
2019-02-07T00:48:17.273Z,0.00
2019-02-07T00:49:17.133Z,0.00
2019-02-07T00:50:17.801Z,0.00
2019-02-07T00:51:17.167Z,0.00
2019-02-07T00:52:17.228Z,0.00
2019-02-07T00:53:18.010Z,0.00
2019-02-07T00:54:17.165Z,0.00
2019-02-07T00:55:17.168Z,0.00
2019-02-07T00:56:17.203Z,0.00
2019-02-07T00:57:19.584Z,0.00
2019-02-07T01:03:54.838Z,0.00
2019-02-07T01:04:54.847Z,0.00
2019-02-07T01:05:54.900Z,0.00
2019-02-07T01:06:55.699Z,0.00
2019-02-07T01:07:54.832Z,0.00
2019-02-07T01:08:54.985Z,0.00
2019-02-07T01:09:54.708Z,0.00
2019-02-07T01:10:54.730Z,0.00
2019-02-07T01:11:54.668Z,0.00
2019-02-07T01:12:54.610Z,0.00
2019-02-07T01:13:54.653Z,0.00
2019-02-07T01:16:09.181Z,0.00
2019-02-07T01:17:08.646Z,0.00
2019-02-07T01:18:09.309Z,0.00
2019-02-07T01:20:35.437Z,0.00
2019-02-07T01:21:35.002Z,0.00
2019-02-07T01:22:34.893Z,0.00
2019-02-07T01:23:34.810Z,0.00
2019-02-07T01:24:34.690Z,0.00
2019-02-07T01:25:35.379Z,0.00
2019-02-07T01:26:34.728Z,0.00
2019-02-07T01:27:34.701Z,0.00
2019-02-07T01:28:34.789Z,0.00
2019-02-07T01:29:34.682Z,0.00
2019-02-07T01:30:37.469Z,0.00
2019-02-07T01:31:35.430Z,0.00
2019-02-07T01:32:34.591Z,0.00
2019-02-07T01:33:34.665Z,0.00
2019-02-07T01:34:34.590Z,0.00
2019-02-07T01:35:34.534Z,0.00
2019-02-07T01:36:34.545Z,0.00
2019-02-07T01:37:34.645Z,0.00
2019-02-07T01:38:34.483Z,0.00
2019-02-07T01:39:34.571Z,0.00
2019-02-07T01:40:34.551Z,0.00
2019-02-07T01:41:34.492Z,0.00
2019-02-07T01:42:34.484Z,0.00
2019-02-07T01:43:34.519Z,0.00
2019-02-07T01:44:34.420Z,0.00
2019-02-07T01:45:34.521Z,0.00
2019-02-07T01:46:34.492Z,0.00
2019-02-07T01:47:34.380Z,0.00
2019-02-07T01:48:34.356Z,0.00
2019-02-07T01:49:34.541Z,0.00
2019-02-07T01:50:34.437Z,0.00
2019-02-07T01:51:34.435Z,0.00
2019-02-07T01:52:34.386Z,0.00
2019-02-07T01:53:34.399Z,0.00
2019-02-07T01:54:34.337Z,0.00
2019-02-07T01:55:34.361Z,0.00
2019-02-07T01:56:34.272Z,0.00
2019-02-07T01:57:34.296Z,0.00
2019-02-07T01:58:34.286Z,0.00
2019-02-07T01:59:34.256Z,0.00
2019-02-07T02:00:34.325Z,0.00
2019-02-07T02:01:34.218Z,0.00
2019-02-07T02:02:34.362Z,0.00
2019-02-07T02:03:34.265Z,0.00
2019-02-07T02:04:34.213Z,0.00
2019-02-07T02:05:34.219Z,0.00
2019-02-07T02:06:34.202Z,0.00
2019-02-07T02:07:34.186Z,0.00
2019-02-07T02:08:34.305Z,0.00
2019-02-07T02:09:34.219Z,0.00
2019-02-07T02:10:34.170Z,0.00
2019-02-07T02:11:34.196Z,0.00
2019-02-07T02:12:34.100Z,0.00
2019-02-07T02:13:34.145Z,0.00
2019-02-07T02:14:34.097Z,0.00
2019-02-07T02:15:34.088Z,0.00
2019-02-07T02:16:34.089Z,0.00
2019-02-07T02:17:34.163Z,0.00
2019-02-07T02:18:34.076Z,0.00
2019-02-07T02:19:34.179Z,0.00
2019-02-07T02:20:34.046Z,0.00
2019-02-07T02:21:34.187Z,0.00
2019-02-07T02:22:33.984Z,0.00
2019-02-07T02:23:34.083Z,0.00
2019-02-07T02:24:34.073Z,0.00
2019-02-07T02:25:34.094Z,0.00
2019-02-07T02:26:33.992Z,0.00
2019-02-07T02:27:34.977Z,0.00
2019-02-07T02:28:50.425Z,0.00
2019-02-07T02:29:34.079Z,0.00
2019-02-07T02:30:34.148Z,0.00
2019-02-07T02:31:33.987Z,0.00
2019-02-07T02:32:34.072Z,0.00
2019-02-07T02:33:33.986Z,0.00
2019-02-07T02:34:34.013Z,0.00
2019-02-07T02:35:34.021Z,0.00
2019-02-07T02:36:33.981Z,0.00
2019-02-07T02:37:33.846Z,0.00
2019-02-07T02:38:34.491Z,0.00
2019-02-07T02:39:34.818Z,0.00
2019-02-07T02:40:34.004Z,0.00
2019-02-07T02:41:33.812Z,0.00
2019-02-07T02:42:34.924Z,0.00
2019-02-07T02:43:34.474Z,0.00
2019-02-07T02:44:33.771Z,0.00
2019-02-07T02:45:37.673Z,0.00
2019-02-07T02:46:33.795Z,0.00
2019-02-07T04:34:16.735Z,0.00
2019-02-07T04:35:16.721Z,0.00
2019-02-07T04:51:26.579Z,0.00
2019-02-07T04:52:26.316Z,0.00
2019-02-07T04:53:26.722Z,0.00
2019-02-07T04:54:26.230Z,0.00
2019-02-07T04:55:25.943Z,0.00
2019-02-07T04:56:25.971Z,0.00
2019-02-07T04:57:25.942Z,0.00
2019-02-07T04:58:25.988Z,0.00
2019-02-07T04:59:25.910Z,0.00
2019-02-07T05:00:25.931Z,0.00
2019-02-07T05:01:25.885Z,0.00
2019-02-07T05:02:26.084Z,0.00
2019-02-07T05:03:25.846Z,0.00
2019-02-07T05:04:25.922Z,0.00
2019-02-07T05:05:25.844Z,0.00
2019-02-07T05:06:25.836Z,0.00
2019-02-07T05:07:26.298Z,0.00
2019-02-07T05:08:25.858Z,0.00
2019-02-07T05:09:25.824Z,0.00
2019-02-07T05:10:25.940Z,0.00
2019-02-07T05:11:25.810Z,0.00
2019-02-07T05:12:25.796Z,0.00
2019-02-07T05:36:47.437Z,0.00
2019-02-07T05:37:49.637Z,0.00
2019-02-07T05:38:47.333Z,0.00
2019-02-07T05:39:46.933Z,0.00
2019-02-07T05:40:46.857Z,0.00
2019-02-07T05:41:46.896Z,0.00
2019-02-07T05:42:46.852Z,0.00
2019-02-07T05:43:48.152Z,0.00
2019-02-07T05:44:46.839Z,0.00
2019-02-07T05:45:46.836Z,0.00
2019-02-07T05:46:51.117Z,0.00
2019-02-07T05:47:47.533Z,0.00
2019-02-07T05:48:46.800Z,0.00
2019-02-07T05:49:46.748Z,0.00
2019-02-07T05:50:46.795Z,0.00
2019-02-07T05:51:46.838Z,0.00
2019-02-07T05:52:46.771Z,0.00
2019-02-07T05:53:54.532Z,0.00
2019-02-07T05:54:47.561Z,0.00
2019-02-07T05:55:46.688Z,0.00
2019-02-07T05:56:46.706Z,0.00
2019-02-07T05:57:46.681Z,0.00
2019-02-07T05:58:46.810Z,0.00
2019-02-07T05:59:46.656Z,0.00
2019-02-07T06:00:46.796Z,0.00
2019-02-07T06:01:46.666Z,0.00
2019-02-07T06:02:46.617Z,0.00
2019-02-07T06:03:46.995Z,0.00
2019-02-07T06:04:46.579Z,0.00
2019-02-07T06:05:46.571Z,0.00
2019-02-07T06:06:46.576Z,0.00
2019-02-07T06:07:46.698Z,0.00
2019-02-07T06:08:46.615Z,0.00
2019-02-07T06:09:48.983Z,0.00
2019-02-07T06:10:46.521Z,0.00
2019-02-07T06:11:46.538Z,0.00
2019-02-07T06:12:46.509Z,0.00
2019-02-07T06:13:46.565Z,0.00
2019-02-07T06:14:46.564Z,0.00
2019-02-07T06:15:46.483Z,0.00
2019-02-07T06:16:46.456Z,0.00
2019-02-07T06:17:46.455Z,0.00
2019-02-07T06:18:46.446Z,0.00
2019-02-07T06:19:46.452Z,0.00
2019-02-07T06:20:46.445Z,0.00
2019-02-07T06:21:48.236Z,0.00
2019-02-07T06:22:46.386Z,0.00
2019-02-07T06:23:46.389Z,0.00
2019-02-07T06:24:46.381Z,0.00
2019-02-07T06:25:46.366Z,0.00
2019-02-07T06:26:46.414Z,4.00
2019-02-07T06:27:46.329Z,4.00
2019-02-07T06:28:46.455Z,4.00
2019-02-07T06:29:46.345Z,0.00
2019-02-07T06:30:46.395Z,4.00
2019-02-07T06:31:46.295Z,4.00
2019-02-07T06:32:46.347Z,4.00
2019-02-07T06:33:46.349Z,8.00
2019-02-07T06:34:46.276Z,12.00
2019-02-07T06:35:46.291Z,8.00
2019-02-07T06:36:46.339Z,12.00
2019-02-07T06:37:46.229Z,8.00
2019-02-07T06:38:46.283Z,12.00
2019-02-07T06:39:46.228Z,16.00
2019-02-07T06:40:46.210Z,20.00
2019-02-07T06:41:46.219Z,28.00
2019-02-07T06:42:46.240Z,32.00
2019-02-07T06:43:46.232Z,44.00
2019-02-07T06:44:47.031Z,48.00
2019-02-07T06:45:46.143Z,56.00
2019-02-07T06:46:46.287Z,60.00
2019-02-07T06:47:46.111Z,60.00
2019-02-07T06:48:46.116Z,56.00
2019-02-07T06:49:46.151Z,60.00
2019-02-07T06:50:46.122Z,68.00
2019-02-07T06:51:46.073Z,76.00
2019-02-07T06:52:46.079Z,92.00
2019-02-07T06:53:46.118Z,100.00
2019-02-07T06:54:46.046Z,100.00
2019-02-07T06:55:46.026Z,96.00
2019-02-07T06:56:46.086Z,104.00
2019-02-07T06:57:46.087Z,116.00
2019-02-07T06:58:46.108Z,132.00
2019-02-07T06:59:45.979Z,148.00
2019-02-07T07:00:46.341Z,172.00
2019-02-07T07:01:46.130Z,192.00
2019-02-07T07:02:46.047Z,224.00
2019-02-07T07:03:45.954Z,260.00
2019-02-07T07:04:45.962Z,296.00
2019-02-07T07:05:49.120Z,344.00
2019-02-07T07:06:45.934Z,404.00
2019-02-07T07:07:45.917Z,460.00
2019-02-07T07:08:45.980Z,500.00
2019-02-07T07:09:46.006Z,464.00
2019-02-07T07:10:45.922Z,428.00
2019-02-07T07:11:45.860Z,404.00
2019-02-07T07:12:45.849Z,384.00
2019-02-07T07:13:45.906Z,352.00
2019-02-07T07:14:45.852Z,328.00
2019-02-07T07:15:45.845Z,316.00
2019-02-07T07:16:45.846Z,304.00
2019-02-07T07:17:45.893Z,300.00
2019-02-07T07:18:45.809Z,308.00
2019-02-07T07:19:45.910Z,328.00
2019-02-07T07:20:45.763Z,364.00
2019-02-07T07:21:45.811Z,412.00
2019-02-07T07:22:45.782Z,476.00
2019-02-07T07:23:45.896Z,564.00
2019-02-07T07:24:45.744Z,628.00
2019-02-07T07:25:45.705Z,640.00
2019-02-07T07:26:45.683Z,624.00
2019-02-07T07:27:45.710Z,648.00
2019-02-07T07:28:45.665Z,688.00
2019-02-07T07:29:45.740Z,748.00
2019-02-07T07:30:45.673Z,804.00
2019-02-07T07:31:45.696Z,876.00
2019-02-07T07:32:45.653Z,1072.00
2019-02-07T07:33:45.652Z,1276.00
2019-02-07T07:34:45.663Z,1392.00
2019-02-07T07:35:45.624Z,1500.00
2019-02-07T07:36:45.614Z,1504.00
2019-02-07T07:37:45.637Z,1468.00
2019-02-07T07:38:45.666Z,1508.00
2019-02-07T07:39:45.556Z,1692.00
2019-02-07T07:40:45.584Z,1796.00
2019-02-07T07:41:45.542Z,1732.00
2019-02-07T07:42:45.551Z,1656.00
2019-02-07T07:43:45.563Z,1652.00
2019-02-07T07:44:45.565Z,1700.00
2019-02-07T07:45:45.534Z,1712.00
2019-02-07T07:46:45.484Z,1624.00
2019-02-07T07:47:45.493Z,1784.00
2019-02-07T07:48:45.457Z,1884.00
2019-02-07T07:49:45.577Z,2028.00
2019-02-07T07:50:45.430Z,2124.00
2019-02-07T07:51:45.411Z,2152.00
2019-02-07T07:52:46.436Z,2152.00
2019-02-07T07:53:45.461Z,2104.00
2019-02-07T07:54:45.403Z,1980.00
2019-02-07T07:55:45.693Z,1980.00
2019-02-07T08:08:02.815Z,1812.00
2019-02-07T08:09:02.408Z,1900.00
2019-02-07T08:10:02.329Z,2056.00
2019-02-07T08:11:02.403Z,2340.00
2019-02-07T08:12:02.270Z,2440.00
2019-02-07T08:13:02.218Z,2416.00
2019-02-07T08:14:02.242Z,2736.00
2019-02-07T08:15:02.173Z,2976.00
2019-02-07T08:16:02.223Z,3528.00
2019-02-07T08:17:02.164Z,3988.00
2019-02-07T08:18:02.189Z,3380.00
2019-02-07T08:19:02.136Z,2532.00
2019-02-07T08:20:02.126Z,2464.00
2019-02-07T08:21:02.113Z,3144.00
2019-02-07T08:22:02.160Z,3296.00
2019-02-07T08:23:02.086Z,3084.00
2019-02-07T08:24:02.172Z,2404.00
2019-02-07T08:25:12.943Z,2000.00
2019-02-07T08:26:02.901Z,1792.00
2019-02-07T08:27:02.185Z,1648.00
2019-02-07T08:28:02.034Z,1968.00
2019-02-07T08:29:02.789Z,2688.00
2019-02-07T08:31:13.411Z,2268.00
2019-02-07T08:32:13.076Z,2368.00
2019-02-07T08:33:12.878Z,2636.00
2019-02-07T08:34:12.783Z,3116.00
2019-02-07T08:35:12.719Z,3232.00
2019-02-07T08:36:12.772Z,3672.00
2019-02-07T08:37:12.806Z,3796.00
2019-02-07T08:38:12.933Z,3620.00
2019-02-07T08:39:12.680Z,3788.00
2019-02-07T08:40:13.528Z,4036.00
2019-02-07T08:41:12.701Z,4000.00
2019-02-07T08:42:13.558Z,4716.00
2019-02-07T08:43:12.651Z,4552.00
2019-02-07T08:44:14.174Z,4572.00
2019-02-07T08:45:12.622Z,3924.00
2019-02-07T08:46:12.608Z,3684.00
2019-02-07T08:47:12.637Z,3668.00
2019-02-07T08:48:12.619Z,4040.00
2019-02-07T08:49:12.571Z,3868.00
2019-02-07T08:50:12.610Z,3508.00
2019-02-07T08:51:12.576Z,3772.00
2019-02-07T08:52:12.565Z,5156.00
2019-02-07T08:53:12.546Z,5968.00
2019-02-07T08:54:12.514Z,4448.00
2019-02-07T08:55:12.504Z,3868.00
2019-02-07T08:56:12.537Z,3844.00
2019-02-07T08:57:12.499Z,4024.00
2019-02-07T08:58:12.512Z,3620.00
2019-02-07T08:59:12.463Z,3380.00
2019-02-07T09:00:12.447Z,2964.00
2019-02-07T09:01:12.440Z,2984.00
2019-02-07T09:02:12.445Z,3440.00
2019-02-07T09:03:12.567Z,3880.00
2019-02-07T09:04:12.431Z,3896.00
2019-02-07T09:05:12.427Z,3784.00
2019-02-07T09:06:12.388Z,5232.00
2019-02-07T09:07:12.382Z,6000.00
2019-02-07T09:08:12.470Z,5104.00
2019-02-07T09:09:12.441Z,4636.00
2019-02-07T09:10:12.395Z,3864.00
2019-02-07T09:11:12.330Z,3856.00
2019-02-07T09:12:12.500Z,3376.00
2019-02-07T09:13:12.312Z,3268.00
2019-02-07T09:14:12.547Z,2984.00
2019-02-07T09:15:12.434Z,3128.00
2019-02-07T09:16:12.333Z,3260.00
2019-02-07T09:17:14.559Z,3244.00
2019-02-07T09:18:13.365Z,3240.00
2019-02-07T09:19:12.244Z,3516.00
2019-02-07T09:20:12.254Z,4692.00
2019-02-07T09:21:12.321Z,5736.00
2019-02-07T09:22:12.294Z,5524.00
2019-02-07T09:23:12.200Z,4860.00
2019-02-07T09:24:12.187Z,5388.00
2019-02-07T09:25:12.244Z,5140.00
2019-02-07T09:26:12.175Z,5728.00
2019-02-07T09:27:12.218Z,7720.00
2019-02-07T09:28:12.146Z,7120.00
2019-02-07T09:29:12.172Z,8080.00
2019-02-07T09:30:12.120Z,7504.00
2019-02-07T09:31:12.140Z,8432.00
2019-02-07T09:32:12.109Z,7196.00
2019-02-07T09:33:12.179Z,4084.00
2019-02-07T09:34:12.123Z,3764.00
2019-02-07T09:35:12.310Z,3996.00
2019-02-07T09:36:12.081Z,6332.00
2019-02-07T09:37:14.002Z,8884.00
2019-02-07T09:38:12.207Z,10388.00
2019-02-07T09:39:12.124Z,11120.00
2019-02-07T09:40:12.145Z,12012.00
2019-02-07T09:41:12.067Z,12276.00
2019-02-07T09:42:12.027Z,12664.00
2019-02-07T09:43:12.117Z,14056.00
2019-02-07T09:44:11.981Z,14600.00
2019-02-07T09:45:12.014Z,14708.00
2019-02-07T09:46:11.998Z,12796.00
2019-02-07T09:47:11.973Z,13980.00
2019-02-07T09:48:21.406Z,14072.00
2019-02-07T09:49:12.954Z,14056.00
2019-02-07T09:50:11.922Z,13532.00
2019-02-07T09:51:11.959Z,10736.00
2019-02-07T09:52:11.894Z,8548.00
2019-02-07T09:53:11.939Z,6892.00
2019-02-07T09:54:12.028Z,8448.00
2019-02-07T09:55:11.862Z,7720.00
2019-02-07T09:56:11.872Z,7704.00
2019-02-07T09:57:11.886Z,9052.00
2019-02-07T09:58:12.080Z,11256.00
2019-02-07T09:59:11.837Z,10916.00
2019-02-07T10:00:11.905Z,9928.00
2019-02-07T10:01:11.801Z,8496.00
2019-02-07T10:02:11.817Z,8976.00
2019-02-07T10:03:12.009Z,11256.00
2019-02-07T10:04:11.896Z,13452.00
2019-02-07T10:05:11.783Z,13784.00
2019-02-07T10:06:11.779Z,14800.00
2019-02-07T10:07:11.742Z,13112.00
2019-02-07T10:08:11.801Z,12692.00
2019-02-07T10:09:11.704Z,12036.00
2019-02-07T10:10:11.724Z,12160.00
2019-02-07T10:11:11.675Z,12060.00
2019-02-07T10:12:11.793Z,13872.00
2019-02-07T10:13:11.697Z,14776.00
2019-02-07T10:14:11.650Z,16432.00
2019-02-07T10:15:14.260Z,17568.00
2019-02-07T10:16:26.858Z,16668.00
2019-02-07T10:17:11.737Z,16184.00
2019-02-07T10:18:11.708Z,14160.00
2019-02-07T10:19:11.807Z,13312.00
2019-02-07T10:20:11.737Z,13872.00
2019-02-07T10:21:11.666Z,16584.00
2019-02-07T10:22:11.652Z,18560.00
2019-02-07T10:23:11.598Z,20064.00
2019-02-07T10:24:11.569Z,19584.00
2019-02-07T10:25:11.561Z,18400.00
2019-02-07T10:26:11.558Z,17600.00
2019-02-07T10:27:11.514Z,17984.00
2019-02-07T10:28:11.496Z,17760.00
2019-02-07T10:29:11.586Z,19072.00
2019-02-07T10:30:11.500Z,18848.00
2019-02-07T10:31:13.410Z,20320.00
2019-02-07T10:32:11.444Z,15620.00
2019-02-07T10:33:11.452Z,14388.00
2019-02-07T10:34:11.434Z,16616.00
2019-02-07T10:35:22.428Z,18400.00
2019-02-07T10:36:12.422Z,18240.00
2019-02-07T10:37:11.407Z,15980.00
2019-02-07T10:38:12.210Z,14556.00
2019-02-07T10:39:11.448Z,12756.00
2019-02-07T10:40:11.379Z,10432.00
2019-02-07T10:41:11.386Z,8676.00
2019-02-07T10:42:11.388Z,8468.00
2019-02-07T10:43:11.332Z,9196.00
2019-02-07T10:44:11.341Z,10624.00
2019-02-07T10:45:11.383Z,13724.00
2019-02-07T10:51:53.871Z,16124.00
2019-02-07T10:54:04.118Z,19392.00
2019-02-07T10:55:03.626Z,21344.00
2019-02-07T10:56:03.490Z,20416.00
2019-02-07T10:57:03.679Z,15984.00
2019-02-07T10:58:03.639Z,14332.00
2019-02-07T10:59:03.509Z,13824.00
2019-02-07T11:00:03.545Z,12672.00
2019-02-07T11:01:03.586Z,12020.00
2019-02-07T11:02:03.450Z,14484.00
2019-02-07T11:03:03.649Z,16648.00
2019-02-07T11:04:03.403Z,16196.00
2019-02-07T11:05:03.411Z,17728.00
2019-02-07T11:07:15.679Z,14880.00
2019-02-07T11:08:15.670Z,15020.00
2019-02-07T11:09:15.234Z,14920.00
2019-02-07T11:10:15.257Z,20032.00
2019-02-07T11:11:15.158Z,17728.00
2019-02-07T11:12:15.183Z,17440.00
2019-02-07T11:13:15.266Z,14860.00
2019-02-07T11:14:15.090Z,14552.00
2019-02-07T11:15:15.114Z,18720.00
2019-02-07T11:16:15.049Z,15932.00
2019-02-07T11:17:15.102Z,15764.00
2019-02-07T11:18:15.110Z,13364.00
2019-02-07T11:19:21.345Z,13716.00
2019-02-07T11:20:15.999Z,13004.00
2019-02-07T11:21:15.039Z,12256.00
2019-02-07T11:22:14.980Z,11772.00
2019-02-07T11:23:14.980Z,12180.00
2019-02-07T11:24:15.003Z,12168.00
2019-02-07T11:25:14.957Z,12908.00
2019-02-07T11:26:16.121Z,13420.00
2019-02-07T11:27:14.926Z,12424.00
2019-02-07T11:28:14.974Z,13940.00
2019-02-07T11:29:14.902Z,17888.00
2019-02-07T11:30:15.059Z,15676.00
2019-02-07T11:31:14.917Z,15008.00
2019-02-07T11:32:14.901Z,15300.00
2019-02-07T11:33:14.975Z,16084.00
2019-02-07T11:34:14.916Z,17108.00
2019-02-07T11:35:14.916Z,17728.00
2019-02-07T11:36:14.856Z,14032.00
2019-02-07T11:37:14.848Z,14048.00
2019-02-07T11:38:15.054Z,13756.00
2019-02-07T11:39:14.800Z,13436.00
2019-02-07T11:40:14.892Z,11356.00
2019-02-07T11:41:14.766Z,10392.00
2019-02-07T11:42:14.823Z,11976.00
2019-02-07T11:43:14.777Z,13376.00
2019-02-07T11:44:14.744Z,14140.00
2019-02-07T11:45:24.731Z,15148.00
2019-02-07T11:46:15.027Z,14572.00
2019-02-07T11:47:14.838Z,14768.00
2019-02-07T11:48:14.881Z,15492.00
2019-02-07T11:49:14.746Z,14636.00
2019-02-07T11:50:14.790Z,14200.00
2019-02-07T11:51:14.767Z,14220.00
2019-02-07T11:52:14.772Z,16428.00
2019-02-07T11:53:14.663Z,15728.00
2019-02-07T11:54:14.650Z,13256.00
2019-02-07T11:55:14.670Z,11760.00
2019-02-07T11:56:14.666Z,13008.00
2019-02-07T11:57:14.698Z,15616.00
2019-02-07T11:58:14.627Z,18048.00
2019-02-07T11:59:19.405Z,22112.00
2019-02-07T12:00:14.646Z,21504.00
2019-02-07T12:01:14.633Z,22880.00
2019-02-07T12:02:14.919Z,22944.00
2019-02-07T12:03:14.530Z,21152.00
2019-02-07T12:04:14.560Z,16552.00
2019-02-07T12:05:17.153Z,15316.00
2019-02-07T12:06:14.556Z,15232.00
2019-02-07T12:07:14.550Z,14704.00
2019-02-07T12:08:14.534Z,15488.00
2019-02-07T12:09:14.465Z,16280.00
2019-02-07T12:10:14.459Z,16432.00
2019-02-07T12:11:14.455Z,15924.00
2019-02-07T12:12:14.471Z,15204.00
2019-02-07T12:13:14.431Z,15832.00
2019-02-07T12:14:14.479Z,16088.00
2019-02-07T12:15:14.394Z,15520.00
2019-02-07T12:16:14.600Z,15684.00
2019-02-07T12:17:14.505Z,15292.00
2019-02-07T12:18:16.360Z,15280.00
2019-02-07T12:19:18.057Z,14532.00
2019-02-07T12:20:14.373Z,13600.00
2019-02-07T12:21:14.359Z,12972.00
2019-02-07T12:22:14.337Z,13572.00
2019-02-07T12:23:14.377Z,13352.00
2019-02-07T12:24:14.376Z,13856.00
2019-02-07T12:25:14.307Z,14692.00
2019-02-07T12:26:14.272Z,15964.00
2019-02-07T12:27:14.274Z,17024.00
2019-02-07T12:30:03.247Z,17824.00
2019-02-07T12:30:57.683Z,17600.00
2019-02-07T12:31:57.685Z,17568.00
2019-02-07T12:32:58.690Z,17824.00
2019-02-07T12:33:57.632Z,16492.00
2019-02-07T12:34:57.539Z,16896.00
2019-02-07T12:35:57.631Z,17376.00
2019-02-07T12:36:57.694Z,16864.00
2019-02-07T12:37:57.581Z,16580.00
2019-02-07T12:41:24.734Z,16928.00
2019-02-07T12:42:24.486Z,17216.00
2019-02-07T12:43:24.298Z,16536.00
2019-02-07T12:44:24.396Z,17312.00
2019-02-07T12:45:24.221Z,17728.00
2019-02-07T12:46:24.167Z,17568.00
2019-02-07T12:47:24.188Z,17280.00
2019-02-07T12:48:27.216Z,16928.00
2019-02-07T12:50:40.154Z,16228.00
2019-02-07T12:51:56.786Z,15956.00
2019-02-07T12:52:40.013Z,15944.00
2019-02-07T12:53:39.988Z,15904.00
2019-02-07T12:54:40.022Z,16216.00
2019-02-07T12:55:39.960Z,16736.00
2019-02-07T12:56:39.997Z,17216.00
2019-02-07T12:57:39.933Z,17632.00
2019-02-07T12:58:40.009Z,18912.00
2019-02-07T12:59:39.918Z,17504.00
2019-02-07T13:00:40.133Z,16540.00
2019-02-07T13:01:39.900Z,16304.00
2019-02-07T13:02:39.907Z,16372.00
2019-02-07T13:03:39.875Z,15940.00
2019-02-07T13:04:39.890Z,16064.00
2019-02-07T13:05:39.888Z,15544.00
2019-02-07T13:06:39.842Z,15696.00
2019-02-07T13:07:39.859Z,15776.00
2019-02-07T13:08:39.941Z,15080.00
2019-02-07T13:09:39.839Z,14852.00
2019-02-07T13:10:39.798Z,14596.00
2019-02-07T13:11:39.810Z,14696.00
2019-02-07T13:12:39.778Z,13148.00
2019-02-07T13:13:39.789Z,12356.00
2019-02-07T13:14:39.809Z,12304.00
2019-02-07T13:15:39.740Z,14208.00
2019-02-07T13:16:39.752Z,15748.00
2019-02-07T13:17:39.729Z,16004.00
2019-02-07T13:18:39.723Z,17024.00
2019-02-07T13:19:40.876Z,18112.00
2019-02-07T13:20:40.033Z,17696.00
2019-02-07T13:22:40.742Z,14040.00
2019-02-07T13:23:39.740Z,13236.00
2019-02-07T13:24:40.284Z,14520.00
2019-02-07T13:25:39.638Z,18592.00
2019-02-07T13:26:39.677Z,17408.00
2019-02-07T13:27:39.621Z,12860.00
2019-02-07T13:28:39.603Z,12104.00
2019-02-07T13:29:39.730Z,13620.00
2019-02-07T13:30:39.588Z,12712.00
2019-02-07T13:31:41.826Z,13412.00
2019-02-07T13:33:54.380Z,15164.00
2019-02-07T13:34:52.681Z,16416.00
2019-02-07T13:35:56.159Z,15160.00
2019-02-07T13:37:20.128Z,16768.00
2019-02-07T13:38:53.293Z,18400.00
2019-02-07T13:39:52.247Z,17184.00
2019-02-07T13:40:52.427Z,17696.00
2019-02-07T13:41:52.232Z,15496.00
2019-02-07T13:42:52.304Z,16128.00
2019-02-07T13:43:52.195Z,15756.00
2019-02-07T13:44:52.335Z,13468.00
2019-02-07T13:46:07.021Z,11764.00
2019-02-07T13:46:52.178Z,11756.00
2019-02-07T13:47:52.158Z,11480.00
2019-02-07T13:48:52.140Z,9444.00
2019-02-07T13:49:53.319Z,8636.00
2019-02-07T13:50:52.600Z,9096.00
2019-02-07T13:51:52.645Z,8856.00
2019-02-07T13:52:53.039Z,8464.00
2019-02-07T13:53:52.089Z,9644.00
2019-02-07T13:54:53.027Z,11500.00
2019-02-07T13:55:52.229Z,10088.00
2019-02-07T13:56:52.071Z,10048.00
2019-02-07T13:57:52.044Z,8992.00
2019-02-07T13:58:52.037Z,9240.00
2019-02-07T13:59:52.055Z,10692.00
2019-02-07T14:00:52.004Z,12240.00
2019-02-07T14:01:52.001Z,14348.00
2019-02-07T14:02:51.986Z,13060.00
2019-02-07T14:03:52.007Z,11604.00
2019-02-07T14:04:51.959Z,15904.00
2019-02-07T14:05:51.971Z,11916.00
2019-02-07T14:06:51.946Z,20384.00
2019-02-07T14:07:51.931Z,9260.00
2019-02-07T14:08:51.913Z,9940.00
2019-02-07T14:09:51.907Z,11104.00
2019-02-07T14:10:51.919Z,19680.00
2019-02-07T14:11:51.928Z,13676.00
2019-02-07T14:12:51.902Z,21440.00
2019-02-07T14:13:51.899Z,9460.00
2019-02-07T14:14:51.846Z,8044.00
2019-02-07T14:15:52.528Z,7920.00
2019-02-07T14:16:51.832Z,7624.00
2019-02-07T14:17:51.821Z,11696.00
2019-02-07T14:18:51.830Z,11200.00
2019-02-07T14:20:03.005Z,25504.00
2019-02-07T14:20:52.782Z,15432.00
2019-02-07T14:21:51.771Z,25856.00
2019-02-07T14:22:52.099Z,12132.00
2019-02-07T14:23:57.091Z,11316.00
2019-02-07T14:24:51.754Z,9848.00
2019-02-07T14:25:51.737Z,8560.00
2019-02-07T14:26:51.784Z,8804.00
2019-02-07T14:27:51.713Z,7428.00
2019-02-07T14:28:51.753Z,7528.00
2019-02-07T14:29:51.807Z,8136.00
2019-02-07T14:30:51.684Z,9160.00
2019-02-07T14:31:51.773Z,9480.00
2019-02-07T14:32:51.716Z,8264.00
2019-02-07T14:33:51.674Z,7184.00
2019-02-07T14:34:51.658Z,6724.00
2019-02-07T14:35:52.526Z,5648.00
2019-02-07T14:36:52.692Z,5480.00
2019-02-07T14:40:12.528Z,6088.00
2019-02-07T14:41:10.472Z,5916.00
2019-02-07T14:42:11.471Z,5728.00
2019-02-07T14:43:11.217Z,6056.00
2019-02-07T14:44:10.192Z,6396.00
2019-02-07T14:47:58.269Z,5544.00
2019-02-07T14:50:22.966Z,6732.00
2019-02-07T14:53:23.160Z,7056.00
2019-02-07T14:54:19.578Z,15232.00
2019-02-07T14:55:19.532Z,18368.00
2019-02-07T14:56:19.357Z,19296.00
2019-02-07T14:57:19.448Z,18240.00
2019-02-07T14:58:19.382Z,14464.00
2019-02-07T14:59:19.345Z,15968.00
2019-02-07T15:00:19.342Z,11696.00
2019-02-07T15:02:37.772Z,11616.00
2019-02-07T15:03:36.669Z,12648.00
2019-02-07T15:04:40.214Z,11604.00
2019-02-07T15:05:36.595Z,11508.00
2019-02-07T15:06:36.544Z,7084.00
2019-02-07T15:07:36.607Z,7072.00
2019-02-07T15:08:36.526Z,6300.00
2019-02-07T15:09:39.440Z,5356.00
2019-02-07T15:10:36.633Z,4812.00
2019-02-07T15:11:36.494Z,4676.00
2019-02-07T15:12:36.500Z,5060.00
2019-02-07T15:13:36.546Z,4704.00
2019-02-07T15:14:36.565Z,4352.00
2019-02-07T15:15:36.452Z,4300.00
2019-02-07T15:16:38.290Z,4464.00
2019-02-07T15:17:36.508Z,4628.00
2019-02-07T15:18:36.462Z,4404.00
2019-02-07T15:19:36.406Z,3916.00
2019-02-07T15:20:36.395Z,3372.00
2019-02-07T15:21:36.386Z,2768.00
2019-02-07T15:22:36.418Z,2656.00
2019-02-07T15:23:36.402Z,2796.00
2019-02-07T15:24:36.667Z,2748.00
2019-02-07T15:25:36.361Z,2592.00
2019-02-07T15:26:36.559Z,2480.00
2019-02-07T15:27:36.327Z,2552.00
2019-02-07T15:28:36.361Z,2536.00
2019-02-07T15:29:36.305Z,2304.00
2019-02-07T15:30:50.906Z,2028.00
2019-02-07T15:31:40.430Z,1800.00
2019-02-07T15:34:03.947Z,1476.00
2019-02-07T15:35:03.746Z,1480.00
2019-02-07T15:36:03.828Z,1592.00